Overview Statistics Trail Chart Weather Telemetry Raw packets
 

This is the latest recevied weather packets stored in our database for station/object E22ZMG-2. If no packets are shown the sender has not sent any weather packets the latest 10 day(s).

<< 17 18 19 20 21 22 23 >>
Time Temp. Humidity Pressure Rain* Wind** Luminosity Snow
1777345547 30.56° C 50% 926 hPa - - 0 W/m² -
1777344923 30° C 51% 926 hPa - - 0 W/m² -
1777344299 29.44° C 52% 926 hPa - - 0 W/m² -
1777343675 30° C 54% 926 hPa - - 0 W/m² -
1777343051 29.44° C 55% 926 hPa - - 0 W/m² -
1777342426 28.89° C 56% 926 hPa - - 0 W/m² -
1777342005 29.44° C 52% 926 hPa - - 0 W/m² -
1777341507 29.44° C 51% 926 hPa - - 0 W/m² -
1777340884 29.44° C 52% 926 hPa - - 0 W/m² -
1777340259 28.89° C 56% 926 hPa - - 0 W/m² -
1777339635 28.33° C 56% 926 hPa - - 0 W/m² -
1777339010 28.33° C 58% 926 hPa - - 0 W/m² -
1777338386 27.78° C 60% 926 hPa - - 0 W/m² -
1777337914 27.78° C 60% 926 hPa - - 0 W/m² -
1777337290 27.22° C 63% 926 hPa - - 0 W/m² -
1777336666 27.22° C 63% 926 hPa - - 0 W/m² -
1777336042 27.22° C 64% 926 hPa - - 0 W/m² -
1777335417 26.67° C 65% 926 hPa - - 0 W/m² -
1777334793 26.67° C 65% 926 hPa - - 0 W/m² -
1777334169 26.67° C 65% 925 hPa - - 0 W/m² -
1777333545 26.67° C 65% 925 hPa - - 0 W/m² -
1777332921 26.11° C 66% 925 hPa - - 0 W/m² -
1777332296 26.67° C 64% 925 hPa - - 0 W/m² -
1777331672 26.11° C 64% 925 hPa - - 0 W/m² -
1777331047 26.67° C 64% 925 hPa - - 0 W/m² -

* Rain since midnight (hover to see other rain measurements)
** Current wind speed in m/s (hover to see current wind gust speed)